createdAt,value
2022-12-18T00:01:52.534Z,-2.31
2022-12-18T00:04:26.920Z,-2.31
2022-12-18T00:06:54.846Z,-2.31
2022-12-18T00:09:22.702Z,-2.32
2022-12-18T00:11:52.585Z,-2.33
2022-12-18T00:14:20.435Z,-2.31
2022-12-18T00:16:48.820Z,-2.33
2022-12-18T00:19:16.694Z,-2.28
2022-12-18T00:21:44.974Z,-2.25
2022-12-18T00:24:13.071Z,-2.27
2022-12-18T00:26:40.990Z,-2.29
2022-12-18T00:29:17.771Z,-2.26
2022-12-18T00:31:45.826Z,-2.24
2022-12-18T00:34:14.123Z,-2.25
2022-12-18T00:36:43.261Z,-2.22
2022-12-18T00:39:12.042Z,-2.22
2022-12-18T00:41:58.239Z,-2.18
2022-12-18T00:44:26.070Z,-2.23
2022-12-18T00:46:53.851Z,-2.24
2022-12-18T00:49:21.902Z,-2.21
2022-12-18T00:51:49.815Z,-2.18
2022-12-18T00:54:18.021Z,-2.17
2022-12-18T00:56:49.218Z,-2.17
2022-12-18T00:59:18.113Z,-2.16
2022-12-18T01:01:46.972Z,-2.15
2022-12-18T01:04:15.246Z,-2.14
2022-12-18T01:06:43.012Z,-2.13
2022-12-18T01:09:10.849Z,-2.15
2022-12-18T01:11:38.663Z,-2.13
2022-12-18T01:14:06.540Z,-2.13
2022-12-18T01:16:34.470Z,-2.17
2022-12-18T01:19:02.414Z,-2.17
2022-12-18T01:21:30.247Z,-2.14
2022-12-18T01:23:59.050Z,-2.18
2022-12-18T01:26:27.405Z,-2.20
2022-12-18T01:28:56.652Z,-2.25
2022-12-18T01:31:32.140Z,-2.26
2022-12-18T01:34:00.254Z,-2.24
2022-12-18T01:36:29.774Z,-2.24
2022-12-18T01:38:57.918Z,-2.24
2022-12-18T01:41:28.064Z,-2.21
2022-12-18T01:43:59.542Z,-2.21
2022-12-18T01:46:28.110Z,-2.25
2022-12-18T01:49:00.046Z,-2.24
2022-12-18T01:51:28.147Z,-2.22
2022-12-18T01:53:55.963Z,-2.22
2022-12-18T01:56:23.819Z,-2.20
2022-12-18T01:59:06.056Z,-2.22
2022-12-18T02:01:34.025Z,-2.19
2022-12-18T02:04:22.340Z,-2.16
2022-12-18T02:06:52.048Z,-2.12
2022-12-18T02:09:26.462Z,-2.10
2022-12-18T02:12:03.797Z,-2.10
2022-12-18T02:14:41.286Z,-2.10
2022-12-18T02:17:15.452Z,-2.05
2022-12-18T02:20:01.451Z,-2.04
2022-12-18T02:22:37.930Z,-2.09
2022-12-18T02:25:22.990Z,-2.10
2022-12-18T02:27:51.187Z,-2.10
2022-12-18T02:30:19.135Z,-2.05
2022-12-18T02:32:51.042Z,-2.06
2022-12-18T02:35:24.221Z,-2.04
2022-12-18T02:37:52.203Z,-2.06
2022-12-18T02:40:20.139Z,-2.02
2022-12-18T02:42:47.980Z,-2.00
2022-12-18T02:45:15.917Z,-2.01
2022-12-18T02:47:45.857Z,-2.02
2022-12-18T02:50:32.348Z,-2.03
2022-12-18T02:53:06.551Z,-2.05
2022-12-18T02:56:11.373Z,-2.05
2022-12-18T02:59:24.305Z,-2.08
2022-12-18T03:02:01.554Z,-2.14
2022-12-18T03:04:32.958Z,-2.14
2022-12-18T03:07:04.227Z,-2.15
2022-12-18T03:09:34.523Z,-2.13
2022-12-18T03:12:26.526Z,-2.10
2022-12-18T03:15:00.253Z,-2.09
2022-12-18T03:17:29.119Z,-2.06
2022-12-18T03:19:58.226Z,-2.09
2022-12-18T03:22:26.258Z,-2.07
2022-12-18T03:24:53.979Z,-2.04
2022-12-18T03:27:22.208Z,-2.03
2022-12-18T03:29:51.881Z,-2.05
2022-12-18T03:32:26.497Z,-2.06
2022-12-18T03:34:54.243Z,-2.09
2022-12-18T03:37:21.982Z,-2.15
2022-12-18T03:39:49.809Z,-2.21
2022-12-18T03:42:23.285Z,-2.26
2022-12-18T03:44:53.812Z,-2.33
2022-12-18T03:47:53.516Z,-2.35
2022-12-18T03:50:37.243Z,-2.37
2022-12-18T03:53:26.890Z,-2.46
2022-12-18T03:55:55.118Z,-2.41
2022-12-18T03:58:25.423Z,-2.39
2022-12-18T04:00:53.902Z,-2.41
2022-12-18T04:03:26.181Z,-2.47
2022-12-18T04:05:55.064Z,-2.46
2022-12-18T04:08:23.540Z,-2.47
2022-12-18T04:10:51.275Z,-2.48
2022-12-18T04:13:45.486Z,-2.44
2022-12-18T04:16:13.367Z,-2.45
2022-12-18T04:18:41.151Z,-2.46
2022-12-18T04:21:08.934Z,-2.40
2022-12-18T04:23:36.922Z,-2.45
2022-12-18T04:26:04.924Z,-2.52
2022-12-18T04:28:32.808Z,-2.65
2022-12-18T04:31:00.698Z,-2.57
2022-12-18T04:33:28.615Z,-2.54
2022-12-18T04:35:56.360Z,-2.52
2022-12-18T04:38:24.208Z,-2.50
2022-12-18T04:40:52.158Z,-2.43
2022-12-18T04:43:20.089Z,-2.43
2022-12-18T04:45:47.961Z,-2.39
2022-12-18T04:48:15.732Z,-2.35
2022-12-18T04:50:43.597Z,-2.31
2022-12-18T04:53:11.385Z,-2.29
2022-12-18T04:55:39.228Z,-2.26
2022-12-18T04:58:12.130Z,-2.23
2022-12-18T05:00:39.913Z,-2.23
2022-12-18T05:03:07.711Z,-2.21
2022-12-18T05:05:37.149Z,-2.17
2022-12-18T05:08:05.033Z,-2.13
2022-12-18T05:10:37.943Z,-2.12
2022-12-18T05:13:06.176Z,-2.10
2022-12-18T05:15:35.062Z,-2.12
2022-12-18T05:18:03.169Z,-2.10
2022-12-18T05:20:31.198Z,-2.09
2022-12-18T05:22:59.079Z,-2.05
2022-12-18T05:25:27.287Z,-2.05
2022-12-18T05:27:55.165Z,-2.03
2022-12-18T05:30:22.968Z,-2.02
2022-12-18T05:32:50.783Z,-1.98
2022-12-18T05:35:18.575Z,-1.96
2022-12-18T05:37:46.427Z,-1.96
2022-12-18T05:40:14.561Z,-1.97
2022-12-18T05:42:42.324Z,-1.97
2022-12-18T05:45:10.460Z,-1.95
2022-12-18T05:47:38.264Z,-1.98
2022-12-18T05:50:06.626Z,-1.98
2022-12-18T05:52:34.394Z,-1.94
2022-12-18T05:55:02.337Z,-1.92
2022-12-18T05:57:30.130Z,-1.94
2022-12-18T05:59:57.994Z,-1.98
2022-12-18T06:02:25.838Z,-1.96
2022-12-18T06:04:53.708Z,-1.97
2022-12-18T06:07:21.432Z,-1.94
2022-12-18T06:09:49.233Z,-1.90
2022-12-18T06:12:17.147Z,-1.93
2022-12-18T06:14:44.972Z,-1.90
2022-12-18T06:17:12.850Z,-1.95
2022-12-18T06:19:40.697Z,-1.90
2022-12-18T06:22:08.468Z,-1.88
2022-12-18T06:24:36.294Z,-1.85
2022-12-18T06:27:04.795Z,-1.82
2022-12-18T06:29:32.518Z,-1.87
2022-12-18T06:32:00.508Z,-1.84
2022-12-18T06:34:28.405Z,-1.85
2022-12-18T06:36:56.152Z,-1.91
2022-12-18T06:39:23.962Z,-1.96
2022-12-18T06:41:51.802Z,-1.98
2022-12-18T06:44:19.630Z,-2.07
2022-12-18T06:46:47.463Z,-2.06
2022-12-18T06:49:15.364Z,-1.99
2022-12-18T06:51:43.298Z,-1.99
2022-12-18T06:54:11.047Z,-1.95
2022-12-18T06:56:38.858Z,-1.92
2022-12-18T06:59:06.701Z,-1.88
2022-12-18T07:01:34.607Z,-1.85
2022-12-18T07:04:02.974Z,-1.85
2022-12-18T07:06:30.828Z,-1.81
2022-12-18T07:08:58.883Z,-1.83
2022-12-18T07:11:26.838Z,-1.81
2022-12-18T07:13:54.864Z,-1.80
2022-12-18T07:16:25.542Z,-1.79
2022-12-18T07:18:54.670Z,-1.76
2022-12-18T07:21:23.020Z,-1.73
2022-12-18T07:23:50.965Z,-1.72
2022-12-18T07:26:20.962Z,-1.71
2022-12-18T07:28:48.841Z,-1.72
2022-12-18T07:31:20.179Z,-1.69
2022-12-18T07:33:49.679Z,-1.67
2022-12-18T07:36:17.676Z,-1.64
2022-12-18T07:38:45.517Z,-1.65
2022-12-18T07:41:14.371Z,-1.66
2022-12-18T07:43:43.153Z,-1.65
2022-12-18T07:46:11.813Z,-1.62
2022-12-18T07:48:41.727Z,-1.60
2022-12-18T07:51:09.690Z,-1.60
2022-12-18T07:53:37.918Z,-1.59
2022-12-18T07:58:55.960Z,-1.59
2022-12-18T08:01:23.877Z,-1.65
2022-12-18T08:03:52.519Z,-1.60
2022-12-18T08:06:23.334Z,-1.63
2022-12-18T08:08:54.032Z,-1.66
2022-12-18T08:11:22.132Z,-1.67
2022-12-18T08:13:50.087Z,-1.65
2022-12-18T08:16:18.138Z,-1.64
2022-12-18T08:18:46.143Z,-1.63
2022-12-18T08:21:15.819Z,-1.58
2022-12-18T08:23:43.945Z,-1.57
2022-12-18T08:26:13.245Z,-1.57
2022-12-18T08:28:41.291Z,-1.53
2022-12-18T08:31:09.632Z,-1.52
2022-12-18T08:33:38.291Z,-1.52
2022-12-18T08:36:07.067Z,-1.54
2022-12-18T08:38:35.236Z,-1.55
2022-12-18T08:41:07.318Z,-1.56
2022-12-18T08:43:53.701Z,-1.56
2022-12-18T08:46:22.020Z,-1.53
2022-12-18T08:48:50.594Z,-1.67
2022-12-18T08:51:19.191Z,-1.70
2022-12-18T08:53:47.065Z,-1.78
2022-12-18T08:56:15.392Z,-1.87
2022-12-18T08:58:43.774Z,-1.74
2022-12-18T09:01:12.510Z,-1.70
2022-12-18T09:03:41.159Z,-1.51
2022-12-18T09:06:09.477Z,-1.23
2022-12-18T09:08:38.863Z,-1.36
2022-12-18T09:11:07.095Z,-1.51
2022-12-18T09:13:34.917Z,-1.47
2022-12-18T09:16:02.743Z,-1.44
2022-12-18T09:18:30.691Z,-1.52
2022-12-18T09:20:58.681Z,-1.56
2022-12-18T09:23:26.514Z,-1.52
2022-12-18T09:25:54.394Z,-1.53
2022-12-18T09:28:22.423Z,-1.50
2022-12-18T09:30:50.967Z,-1.49
2022-12-18T09:33:19.213Z,-1.50
2022-12-18T09:35:47.443Z,-1.48
2022-12-18T09:38:20.245Z,-1.51
2022-12-18T09:40:54.880Z,-1.52
2022-12-18T09:43:25.968Z,-1.60
2022-12-18T09:45:59.342Z,-1.59
2022-12-18T09:48:34.966Z,-1.58
2022-12-18T09:51:23.788Z,-1.60
2022-12-18T09:53:57.802Z,-1.65
2022-12-18T09:56:27.129Z,-1.61
2022-12-18T09:59:02.760Z,-1.56
2022-12-18T10:01:43.236Z,-1.51
2022-12-18T10:04:12.174Z,-1.52
2022-12-18T10:06:55.159Z,-1.53
2022-12-18T10:09:26.137Z,-1.56
2022-12-18T10:12:16.046Z,-1.53
2022-12-18T10:14:45.850Z,-1.44
2022-12-18T10:18:01.765Z,-1.53
2022-12-18T10:20:40.088Z,-1.50
2022-12-18T10:23:29.756Z,-1.62
2022-12-18T10:26:06.062Z,-1.54
2022-12-18T10:28:35.804Z,-1.47
2022-12-18T10:31:03.711Z,-1.47
2022-12-18T10:33:32.697Z,-1.43
2022-12-18T10:36:00.673Z,-1.43
2022-12-18T10:38:32.829Z,-1.41
2022-12-18T10:41:08.671Z,-1.38
2022-12-18T10:43:37.989Z,-1.39
2022-12-18T10:46:11.949Z,-1.44
2022-12-18T10:48:50.560Z,-1.48
2022-12-18T10:51:35.774Z,-1.60
2022-12-18T10:54:06.697Z,-1.67
2022-12-18T10:56:36.625Z,-1.69
2022-12-18T10:59:08.047Z,-1.77
2022-12-18T11:01:50.399Z,-1.75
2022-12-18T11:04:32.373Z,-1.82
2022-12-18T11:07:05.925Z,-1.69
2022-12-18T11:09:43.050Z,-1.60
2022-12-18T11:12:19.356Z,-1.49
2022-12-18T11:14:51.793Z,-1.47
2022-12-18T11:17:36.900Z,-1.55
2022-12-18T11:20:28.834Z,-1.60
2022-12-18T11:23:04.015Z,-1.62
2022-12-18T11:25:34.613Z,-1.67
2022-12-18T11:28:07.852Z,-1.68
2022-12-18T11:30:37.061Z,-1.66
2022-12-18T11:33:08.824Z,-1.71
2022-12-18T11:35:55.192Z,-1.65
2022-12-18T11:38:27.780Z,-1.52
2022-12-18T11:41:02.352Z,-1.43
2022-12-18T11:43:39.524Z,-1.36
2022-12-18T11:46:16.149Z,-1.34
2022-12-18T11:48:54.619Z,-1.27
2022-12-18T11:51:54.504Z,-1.34
2022-12-18T11:54:22.482Z,-1.62
2022-12-18T11:57:12.644Z,-1.62
2022-12-18T11:59:54.922Z,-1.52
2022-12-18T12:02:45.589Z,-1.53
2022-12-18T12:05:42.644Z,-1.52
2022-12-18T12:08:31.574Z,-1.48
2022-12-18T12:11:26.207Z,-1.56
2022-12-18T12:14:06.355Z,-1.51
2022-12-18T12:16:50.304Z,-1.51
2022-12-18T12:19:41.286Z,-1.50
2022-12-18T12:22:12.294Z,-1.39
2022-12-18T12:25:20.509Z,-1.44
2022-12-18T12:28:05.040Z,-1.39
2022-12-18T12:30:32.903Z,-1.38
2022-12-18T12:33:23.639Z,-1.26
2022-12-18T12:36:05.078Z,-1.18
2022-12-18T12:38:39.586Z,-1.19
2022-12-18T12:41:28.752Z,-1.10
2022-12-18T12:43:56.744Z,-1.12
2022-12-18T12:46:25.204Z,-1.12
2022-12-18T12:49:04.507Z,-1.07
2022-12-18T12:51:41.020Z,-1.04
2022-12-18T12:54:16.758Z,-1.02
2022-12-18T12:56:52.633Z,-1.00
2022-12-18T12:59:48.201Z,-0.98
2022-12-18T13:02:28.967Z,-0.98
2022-12-18T13:04:56.927Z,-0.95
2022-12-18T13:07:43.940Z,-0.95
2022-12-18T13:10:39.961Z,-0.97
2022-12-18T13:13:11.609Z,-0.93
2022-12-18T13:15:46.065Z,-0.90
2022-12-18T13:18:24.678Z,-0.87
2022-12-18T13:20:59.788Z,-0.86
2022-12-18T13:23:35.056Z,-0.89
2022-12-18T13:26:12.588Z,-0.88
2022-12-18T13:28:49.751Z,-0.83
2022-12-18T13:31:43.645Z,-0.80
2022-12-18T13:34:26.822Z,-0.79
2022-12-18T13:36:57.068Z,-0.79
2022-12-18T13:39:28.881Z,-0.81
2022-12-18T13:42:06.767Z,-0.79
2022-12-18T13:44:45.629Z,-0.82
2022-12-18T13:47:35.996Z,-0.81
2022-12-18T13:50:05.759Z,-0.85
2022-12-18T13:52:38.278Z,-0.85
2022-12-18T13:55:08.524Z,-0.82
2022-12-18T13:57:43.022Z,-0.86
2022-12-18T14:00:30.752Z,-0.87
2022-12-18T14:02:59.230Z,-0.83
2022-12-18T14:05:28.720Z,-0.84
2022-12-18T14:07:56.821Z,-0.84
2022-12-18T14:13:13.135Z,-1.11
2022-12-18T14:15:43.422Z,-1.02
2022-12-18T14:18:28.566Z,-0.96
2022-12-18T14:21:02.440Z,-1.04
2022-12-18T14:23:43.907Z,-1.08
2022-12-18T14:26:31.123Z,-1.06
2022-12-18T14:28:59.476Z,-1.11
2022-12-18T14:31:28.550Z,-1.21
2022-12-18T14:33:56.538Z,-1.18
2022-12-18T14:36:31.148Z,-1.17
2022-12-18T14:38:59.891Z,-1.13
2022-12-18T14:41:28.009Z,-1.19
2022-12-18T14:43:56.390Z,-1.23
2022-12-18T14:46:38.069Z,-1.25
2022-12-18T14:49:07.140Z,-1.25
2022-12-18T14:51:35.865Z,-1.26
2022-12-18T14:54:10.445Z,-1.22
2022-12-18T14:56:39.615Z,-1.16
2022-12-18T14:59:16.984Z,-1.12
2022-12-18T15:01:56.146Z,-1.27
2022-12-18T15:04:34.215Z,-1.23
2022-12-18T15:07:25.281Z,-1.21
2022-12-18T15:10:03.433Z,-1.21
2022-12-18T15:12:38.152Z,-1.14
2022-12-18T15:15:06.768Z,-1.13
2022-12-18T15:17:34.718Z,-1.09
2022-12-18T15:20:03.941Z,-1.08
2022-12-18T15:22:37.568Z,-1.08
2022-12-18T15:25:06.503Z,-1.10
2022-12-18T15:27:39.884Z,-1.09
2022-12-18T15:30:07.605Z,-1.13
2022-12-18T15:32:35.521Z,-1.20
2022-12-18T15:35:22.177Z,-1.16
2022-12-18T15:37:50.709Z,-1.15
2022-12-18T15:40:20.297Z,-1.17
2022-12-18T15:43:06.613Z,-1.22
2022-12-18T15:45:34.539Z,-1.25
2022-12-18T15:48:02.441Z,-1.23
2022-12-18T15:50:30.432Z,-1.23
2022-12-18T15:52:58.834Z,-1.19
2022-12-18T15:55:45.295Z,-1.19
2022-12-18T15:58:18.164Z,-1.17
2022-12-18T16:00:46.020Z,-1.16
2022-12-18T16:03:14.922Z,-1.19
2022-12-18T16:05:42.959Z,-1.24
2022-12-18T16:08:10.978Z,-1.25
2022-12-18T16:10:38.802Z,-1.23
2022-12-18T16:13:06.716Z,-1.17
2022-12-18T16:15:34.567Z,-1.18
2022-12-18T16:18:02.410Z,-1.16
2022-12-18T16:20:30.300Z,-1.13
2022-12-18T16:22:58.231Z,-1.15
2022-12-18T16:25:27.732Z,-1.13
2022-12-18T16:27:59.476Z,-1.14
2022-12-18T16:30:32.741Z,-1.14
2022-12-18T16:33:05.357Z,-1.12
2022-12-18T16:35:33.276Z,-1.16
2022-12-18T16:38:01.134Z,-1.19
2022-12-18T16:40:28.891Z,-1.19
2022-12-18T16:42:56.692Z,-1.18
2022-12-18T16:45:24.563Z,-1.14
2022-12-18T16:47:52.431Z,-1.13
2022-12-18T16:50:22.140Z,-1.11
2022-12-18T16:52:50.416Z,-1.14
2022-12-18T16:55:18.421Z,-1.13
2022-12-18T16:57:46.327Z,-1.09
2022-12-18T17:00:14.753Z,-1.08
2022-12-18T17:02:42.760Z,-1.07
2022-12-18T17:05:10.850Z,-1.10
2022-12-18T17:07:38.697Z,-1.09
2022-12-18T17:10:06.936Z,-1.11
2022-12-18T17:12:34.658Z,-1.10
2022-12-18T17:15:02.444Z,-1.08
2022-12-18T17:17:30.219Z,-1.06
2022-12-18T17:19:58.001Z,-1.05
2022-12-18T17:22:25.853Z,-1.03
2022-12-18T17:24:53.699Z,-1.05
2022-12-18T17:27:21.690Z,-1.03
2022-12-18T17:29:49.632Z,-1.01
2022-12-18T17:32:18.437Z,-1.03
2022-12-18T17:34:46.532Z,-1.01
2022-12-18T17:37:14.509Z,-0.99
2022-12-18T17:39:43.413Z,-0.97
2022-12-18T17:42:15.282Z,-0.98
2022-12-18T17:44:44.079Z,-0.99
2022-12-18T17:47:13.522Z,-0.98
2022-12-18T17:49:41.603Z,-0.98
2022-12-18T17:52:09.610Z,-0.96
2022-12-18T17:54:40.703Z,-0.96
2022-12-18T17:57:08.891Z,-0.95
2022-12-18T17:59:36.922Z,-0.97
2022-12-18T18:02:05.140Z,-0.97
2022-12-18T18:04:33.173Z,-0.93
2022-12-18T18:07:01.073Z,-0.90
2022-12-18T18:09:29.152Z,-0.93
2022-12-18T18:12:15.667Z,-0.90
2022-12-18T18:14:43.858Z,-0.91
2022-12-18T18:17:12.022Z,-0.88
2022-12-18T18:19:40.088Z,-0.88
2022-12-18T18:22:08.516Z,-0.91
2022-12-18T18:24:36.605Z,-0.92
2022-12-18T18:27:04.544Z,-0.88
2022-12-18T18:29:32.410Z,-0.88
2022-12-18T18:32:00.505Z,-0.86
2022-12-18T18:34:29.769Z,-0.83
2022-12-18T18:36:58.084Z,-0.83
2022-12-18T18:39:26.323Z,-0.80
2022-12-18T18:41:54.220Z,-0.82
2022-12-18T18:44:24.418Z,-0.80
2022-12-18T18:46:57.763Z,-0.82
2022-12-18T18:49:28.414Z,-0.81
2022-12-18T18:51:56.645Z,-0.78
2022-12-18T18:54:25.014Z,-0.79
2022-12-18T18:59:40.905Z,-0.79
2022-12-18T19:02:12.957Z,-0.78
2022-12-18T19:04:46.026Z,-0.78
2022-12-18T19:07:15.090Z,-0.81
2022-12-18T19:09:57.977Z,-0.79
2022-12-18T19:12:49.953Z,-0.79
2022-12-18T19:15:17.837Z,-0.78
2022-12-18T19:17:47.142Z,-0.79
2022-12-18T19:20:16.390Z,-0.79
2022-12-18T19:22:44.355Z,-0.77
2022-12-18T19:25:19.662Z,-0.75
2022-12-18T19:27:47.626Z,-0.72
2022-12-18T19:30:15.467Z,-0.74
2022-12-18T19:32:43.494Z,-0.81
2022-12-18T19:35:12.295Z,-0.82
2022-12-18T19:37:40.542Z,-0.83
2022-12-18T19:40:12.290Z,-0.81
2022-12-18T19:42:40.634Z,-0.76
2022-12-18T19:45:08.859Z,-0.74
2022-12-18T19:47:36.896Z,-0.70
2022-12-18T19:50:04.984Z,-0.71
2022-12-18T19:52:33.134Z,-0.71
2022-12-18T19:55:01.042Z,-0.69
2022-12-18T19:57:29.068Z,-0.67
2022-12-18T19:59:56.885Z,-0.66
2022-12-18T20:02:24.830Z,-0.67
2022-12-18T20:04:52.875Z,-0.68
2022-12-18T20:07:20.788Z,-0.65
2022-12-18T20:09:53.870Z,-0.66
2022-12-18T20:12:30.250Z,-0.64
2022-12-18T20:14:58.661Z,-0.64
2022-12-18T20:17:26.569Z,-0.66
2022-12-18T20:19:55.091Z,-0.65
2022-12-18T20:22:22.995Z,-0.67
2022-12-18T20:24:50.943Z,-0.68
2022-12-18T20:27:19.631Z,-0.72
2022-12-18T20:29:47.665Z,-0.67
2022-12-18T20:32:16.236Z,-0.65
2022-12-18T20:34:44.587Z,-0.62
2022-12-18T20:37:13.415Z,-0.63
2022-12-18T20:39:46.957Z,-0.66
2022-12-18T20:42:15.509Z,-0.63
2022-12-18T20:44:43.454Z,-0.64
2022-12-18T20:47:11.425Z,-0.61
2022-12-18T20:49:39.694Z,-0.60
2022-12-18T20:52:14.006Z,-0.58
2022-12-18T20:54:42.206Z,-0.55
2022-12-18T20:57:10.072Z,-0.55
2022-12-18T20:59:39.936Z,-0.54
2022-12-18T21:02:13.604Z,-0.53
2022-12-18T21:04:41.598Z,-0.51
2022-12-18T21:07:09.770Z,-0.53
2022-12-18T21:09:38.659Z,-0.56
2022-12-18T21:12:28.484Z,-0.59
2022-12-18T21:14:57.563Z,-0.57
2022-12-18T21:17:26.729Z,-0.58
2022-12-18T21:19:56.709Z,-0.61
2022-12-18T21:22:25.295Z,-0.65
2022-12-18T21:24:53.563Z,-0.63
2022-12-18T21:27:21.716Z,-0.60
2022-12-18T21:29:49.747Z,-0.61
2022-12-18T21:32:19.919Z,-0.60
2022-12-18T21:34:48.821Z,-0.58
2022-12-18T21:37:17.199Z,-0.61
2022-12-18T21:39:48.999Z,-0.59
2022-12-18T21:42:36.677Z,-0.59
2022-12-18T21:45:08.462Z,-0.60
2022-12-18T21:47:39.920Z,-0.60
2022-12-18T21:50:08.298Z,-0.59
2022-12-18T21:52:39.749Z,-0.58
2022-12-18T21:55:10.142Z,-0.62
2022-12-18T21:57:40.027Z,-0.59
2022-12-18T22:00:09.628Z,-0.59
2022-12-18T22:02:39.880Z,-0.60
2022-12-18T22:05:08.415Z,-0.60
2022-12-18T22:07:38.733Z,-0.62
2022-12-18T22:10:07.289Z,-0.64
2022-12-18T22:12:44.387Z,-0.62
2022-12-18T22:15:20.286Z,-0.66
2022-12-18T22:17:52.199Z,-0.66
2022-12-18T22:20:28.149Z,-0.67
2022-12-18T22:22:57.747Z,-0.68
2022-12-18T22:25:25.938Z,-0.67
2022-12-18T22:28:18.355Z,-0.66
2022-12-18T22:30:47.063Z,-0.67
2022-12-18T22:33:15.078Z,-0.66
2022-12-18T22:35:43.110Z,-0.68
2022-12-18T22:38:11.305Z,-0.65
2022-12-18T22:40:41.593Z,-0.68
2022-12-18T22:43:09.500Z,-0.66
2022-12-18T22:45:38.821Z,-0.62
2022-12-18T22:48:07.294Z,-0.66
2022-12-18T22:50:35.239Z,-0.60
2022-12-18T22:53:03.183Z,-0.59
2022-12-18T22:55:31.013Z,-0.67
2022-12-18T22:57:58.847Z,-0.65
2022-12-18T23:00:26.876Z,-0.60
2022-12-18T23:03:00.416Z,-0.61
2022-12-18T23:05:32.261Z,-0.62
2022-12-18T23:08:00.631Z,-0.65
2022-12-18T23:10:28.750Z,-0.67
2022-12-18T23:12:56.748Z,-0.65
2022-12-18T23:15:28.342Z,-0.65
2022-12-18T23:17:57.245Z,-0.67
2022-12-18T23:20:25.181Z,-0.63
2022-12-18T23:22:53.025Z,-0.71
2022-12-18T23:25:23.333Z,-0.72
2022-12-18T23:27:51.257Z,-0.70
2022-12-18T23:30:19.123Z,-0.65
2022-12-18T23:32:46.967Z,-0.62
2022-12-18T23:35:15.765Z,-0.63
2022-12-18T23:38:00.175Z,-0.62
2022-12-18T23:40:29.115Z,-0.62
2022-12-18T23:42:57.015Z,-0.63
2022-12-18T23:45:24.917Z,-0.71
2022-12-18T23:47:52.829Z,-0.67
2022-12-18T23:50:20.910Z,-0.71
2022-12-18T23:52:56.533Z,-0.69
2022-12-18T23:55:29.879Z,-0.68
2022-12-18T23:57:57.730Z,-0.70
